Time;durP1;ratioP1;P1;durP2;ratioP2;P2;SDS_P1;SDS_P2;PMS_P1;PMS_P2;Temp;Humidity;BMP_temperature;BMP_pressure;BME280_temperature;BME280_humidity;BME280_pressure;Samples;Min_cycle;Max_cycle;Signal;HPM_P1;HPM_P2
2023/10/04 00:01:09;;;;;;;9.50;8.90;;;15.80;99.90;;;;;;4891468;29;20974;-83
2023/10/04 00:03:38;;;;;;;9.73;9.03;;;15.80;99.90;;;;;;4889830;29;20469;-82
2023/10/04 00:06:07;;;;;;;8.67;8.37;;;15.80;99.90;;;;;;4893278;29;20487;-82
2023/10/04 00:08:37;;;;;;;9.17;8.87;;;16.00;99.90;;;;;;4892312;29;20562;-83
2023/10/04 00:11:06;;;;;;;8.97;8.70;;;16.00;99.90;;;;;;4893737;29;20459;-81
2023/10/04 00:13:34;;;;;;;9.60;8.90;;;16.00;99.90;;;;;;4892038;29;20539;-82
2023/10/04 00:16:04;;;;;;;8.97;8.67;;;16.00;99.90;;;;;;4895790;29;20514;-81
2023/10/04 00:18:32;;;;;;;9.30;9.00;;;15.90;99.90;;;;;;4894704;29;20495;-81
2023/10/04 00:21:01;;;;;;;9.70;9.20;;;15.90;99.90;;;;;;4891945;29;20462;-82
2023/10/04 00:23:29;;;;;;;9.10;8.70;;;15.80;99.90;;;;;;4894775;29;20463;-81
2023/10/04 00:25:59;;;;;;;9.50;9.00;;;15.80;99.90;;;;;;4890971;29;20482;-81
2023/10/04 00:28:28;;;;;;;9.50;9.00;;;15.80;99.90;;;;;;4893235;29;20599;-84
2023/10/04 00:30:56;;;;;;;9.50;9.10;;;15.70;99.90;;;;;;4894402;29;20459;-82
2023/10/04 00:33:24;;;;;;;9.90;9.60;;;15.70;99.90;;;;;;4895181;29;20478;-82
2023/10/04 00:35:52;;;;;;;8.93;8.63;;;15.70;99.90;;;;;;4891996;29;20585;-82
2023/10/04 00:38:20;;;;;;;9.03;8.63;;;15.60;99.90;;;;;;4891405;29;20459;-82
2023/10/04 00:40:50;;;;;;;9.23;8.93;;;15.60;99.90;;;;;;4890576;29;20462;-82
2023/10/04 00:43:20;;;;;;;9.77;9.30;;;15.60;99.90;;;;;;4892487;29;20474;-82
2023/10/04 00:45:49;;;;;;;9.40;9.10;;;15.50;99.90;;;;;;4889382;29;20482;-81
2023/10/04 00:48:49;;;;;;;9.53;9.10;;;15.50;99.90;;;;;;4888870;29;20471;-82
2023/10/04 00:51:22;;;;;;;9.20;8.87;;;15.50;99.90;;;;;;4885438;29;20917;-81
2023/10/04 00:53:52;;;;;;;9.50;9.10;;;15.50;99.90;;;;;;4891343;29;20455;-82
2023/10/04 00:56:21;;;;;;;9.30;8.90;;;15.40;99.90;;;;;;4906491;29;20495;-81
2023/10/04 00:59:12;;;;;;;9.37;8.97;;;15.40;99.90;;;;;;4892388;29;20471;-82
2023/10/04 01:02:13;;;;;;;9.43;9.10;;;15.30;99.90;;;;;;4893543;29;20459;-82
2023/10/04 01:04:49;;;;;;;9.40;8.90;;;15.40;99.90;;;;;;4895736;29;20458;-81
2023/10/04 01:07:17;;;;;;;9.10;8.70;;;15.40;99.90;;;;;;4897262;29;20593;-82
2023/10/04 01:09:46;;;;;;;9.50;9.00;;;15.40;99.90;;;;;;4896461;29;20467;-82
2023/10/04 01:12:22;;;;;;;9.40;9.00;;;15.40;99.90;;;;;;4894015;29;20475;-81
2023/10/04 01:14:53;;;;;;;9.53;8.97;;;15.40;99.90;;;;;;4894938;29;21079;-82
2023/10/04 01:17:22;;;;;;;9.33;9.03;;;15.40;99.90;;;;;;4891407;29;20495;-83
2023/10/04 01:19:51;;;;;;;9.47;9.17;;;15.30;99.90;;;;;;4896634;29;20470;-83
2023/10/04 01:22:21;;;;;;;9.67;9.27;;;15.40;99.90;;;;;;4897456;29;20542;-81
2023/10/04 01:24:49;;;;;;;9.20;8.90;;;15.30;99.90;;;;;;4892638;29;20542;-83
2023/10/04 01:27:17;;;;;;;9.60;9.30;;;15.30;99.90;;;;;;4895283;29;20482;-82
2023/10/04 01:29:45;;;;;;;9.40;9.10;;;15.30;99.90;;;;;;4895686;29;20467;-81
2023/10/04 01:32:13;;;;;;;9.43;9.03;;;15.30;99.90;;;;;;4897417;29;20509;-81
2023/10/04 01:34:41;;;;;;;8.90;8.50;;;15.30;99.90;;;;;;4893736;29;20574;-82
2023/10/04 01:37:10;;;;;;;9.13;8.83;;;15.30;99.90;;;;;;4893216;29;20493;-82
2023/10/04 01:39:44;;;;;;;9.90;9.30;;;15.20;99.90;;;;;;4896030;29;20749;-81
2023/10/04 01:42:12;;;;;;;9.37;9.00;;;15.20;99.90;;;;;;4892079;29;20546;-82
2023/10/04 01:44:41;;;;;;;9.30;9.00;;;15.10;99.90;;;;;;4893602;29;20459;-81
2023/10/04 01:47:10;;;;;;;9.20;8.90;;;15.20;99.90;;;;;;4893333;29;20479;-82
2023/10/04 01:49:38;;;;;;;9.43;9.03;;;15.10;99.90;;;;;;4894313;29;20455;-81
2023/10/04 01:52:06;;;;;;;9.30;8.97;;;15.10;99.90;;;;;;4892008;29;20464;-81
2023/10/04 01:54:35;;;;;;;8.80;8.50;;;15.00;99.90;;;;;;4893807;29;20486;-81
2023/10/04 01:57:05;;;;;;;8.87;8.47;;;15.00;99.90;;;;;;4894301;29;20468;-82
2023/10/04 01:59:33;;;;;;;9.87;9.33;;;15.00;99.90;;;;;;4893558;29;20856;-81
2023/10/04 02:02:07;;;;;;;9.13;8.83;;;15.10;99.90;;;;;;4893497;29;20471;-81
2023/10/04 02:04:36;;;;;;;8.90;8.60;;;15.10;99.90;;;;;;4888898;29;20466;-81
2023/10/04 02:07:04;;;;;;;9.20;8.80;;;15.10;99.90;;;;;;4890796;29;20485;-82
2023/10/04 02:09:33;;;;;;;9.40;8.80;;;15.00;99.90;;;;;;4905359;29;20478;-81
2023/10/04 02:12:02;;;;;;;8.50;8.10;;;14.90;99.90;;;;;;4894734;29;20494;-81
2023/10/04 02:14:33;;;;;;;9.20;8.80;;;14.80;99.90;;;;;;4890129;29;20455;-81
2023/10/04 02:17:05;;;;;;;8.80;8.50;;;14.70;99.90;;;;;;4892180;29;20517;-82
2023/10/04 02:19:33;;;;;;;8.93;8.40;;;14.80;99.90;;;;;;4890948;29;20459;-82
2023/10/04 02:22:07;;;;;;;8.80;8.40;;;14.80;99.90;;;;;;4892504;29;20832;-82
2023/10/04 02:24:35;;;;;;;8.87;8.47;;;14.90;1.00;;;;;;4887903;29;20890;-83
2023/10/04 02:27:06;;;;;;;8.80;8.50;;;14.90;1.00;;;;;;4892529;29;20567;-82
2023/10/04 02:29:38;;;;;;;8.80;8.40;;;15.00;1.00;;;;;;4890340;29;20471;-82
2023/10/04 02:32:09;;;;;;;8.37;8.07;;;15.10;99.90;;;;;;4890229;29;20507;-83
2023/10/04 02:34:38;;;;;;;8.60;8.30;;;15.00;99.90;;;;;;4891742;29;20460;-81
2023/10/04 02:37:07;;;;;;;8.67;8.27;;;14.90;99.90;;;;;;4889158;29;20522;-83
2023/10/04 02:39:37;;;;;;;8.53;8.13;;;14.90;99.90;;;;;;4890839;29;20474;-82
2023/10/04 02:42:09;;;;;;;8.43;8.00;;;14.90;99.90;;;;;;4889411;29;20491;-84
2023/10/04 02:44:39;;;;;;;8.47;8.17;;;14.80;99.90;;;;;;4890701;29;20456;-83
2023/10/04 02:47:08;;;;;;;8.30;7.83;;;14.70;99.90;;;;;;4890722;29;20479;-82
2023/10/04 02:49:37;;;;;;;8.40;8.10;;;14.60;99.90;;;;;;4890667;29;20803;-83
2023/10/04 02:52:11;;;;;;;9.40;9.00;;;14.60;99.90;;;;;;4889534;29;20463;-83
2023/10/04 02:54:39;;;;;;;9.10;8.80;;;14.60;1.00;;;;;;4888975;29;20463;-84
2023/10/04 02:57:08;;;;;;;9.03;8.63;;;14.70;1.00;;;;;;4892373;29;20502;-83
2023/10/04 02:59:38;;;;;;;8.63;8.27;;;14.70;99.90;;;;;;4889665;29;20525;-83
2023/10/04 03:02:07;;;;;;;9.20;8.80;;;14.70;99.90;;;;;;4890566;29;20498;-83
2023/10/04 03:04:39;;;;;;;9.40;8.90;;;14.60;99.90;;;;;;4891688;29;20463;-82
2023/10/04 03:07:09;;;;;;;8.47;8.17;;;14.60;99.90;;;;;;4887339;29;20601;-82
2023/10/04 03:09:38;;;;;;;8.87;8.47;;;14.50;99.90;;;;;;4892987;29;20459;-81
2023/10/04 03:12:06;;;;;;;8.50;8.30;;;14.50;99.90;;;;;;4893792;29;20455;-81
2023/10/04 03:14:34;;;;;;;8.50;8.10;;;14.40;99.90;;;;;;4891635;29;20503;-81
2023/10/04 03:17:03;;;;;;;8.30;8.03;;;14.40;99.90;;;;;;4891428;29;20498;-82
2023/10/04 03:19:36;;;;;;;8.20;7.90;;;14.40;99.90;;;;;;4891898;29;20470;-82
2023/10/04 03:22:06;;;;;;;8.27;7.97;;;14.30;99.90;;;;;;4892078;29;20518;-81
2023/10/04 03:24:35;;;;;;;9.80;9.00;;;14.30;99.90;;;;;;4890686;29;20459;-81
2023/10/04 03:27:05;;;;;;;9.37;9.00;;;14.30;99.90;;;;;;4890731;29;20479;-81
2023/10/04 03:29:33;;;;;;;8.87;8.50;;;14.20;99.90;;;;;;4894210;29;20490;-81
2023/10/04 03:32:07;;;;;;;9.57;9.17;;;14.20;99.90;;;;;;4891731;29;20502;-82
2023/10/04 03:34:38;;;;;;;9.00;8.60;;;14.20;99.90;;;;;;4886433;29;20570;-81
2023/10/04 03:37:09;;;;;;;9.07;8.60;;;14.10;99.90;;;;;;4889487;29;20576;-81
2023/10/04 03:39:37;;;;;;;9.07;8.67;;;14.10;99.90;;;;;;4888491;29;20463;-80
2023/10/04 03:42:05;;;;;;;8.90;8.60;;;14.00;99.90;;;;;;4889818;29;20481;-81
2023/10/04 03:44:35;;;;;;;8.67;8.33;;;14.00;99.90;;;;;;4884250;29;20470;-80
2023/10/04 03:47:03;;;;;;;9.20;8.90;;;14.00;99.90;;;;;;4890067;29;20909;-81
2023/10/04 03:49:32;;;;;;;8.70;8.40;;;14.00;99.90;;;;;;4894242;29;20610;-80
2023/10/04 03:52:02;;;;;;;8.07;7.77;;;14.00;99.90;;;;;;4890970;29;20467;-81
2023/10/04 03:54:30;;;;;;;8.73;8.43;;;14.00;99.90;;;;;;4892979;29;20574;-81
2023/10/04 03:56:59;;;;;;;9.43;8.93;;;14.00;99.90;;;;;;4887133;29;20483;-82
2023/10/04 03:59:28;;;;;;;8.87;8.57;;;14.00;99.90;;;;;;4889371;29;20467;-82
2023/10/04 04:01:56;;;;;;;8.17;7.97;;;13.90;99.90;;;;;;4884149;29;20560;-81
2023/10/04 04:04:24;;;;;;;8.97;8.50;;;13.90;99.90;;;;;;4889028;29;20490;-82
2023/10/04 04:06:53;;;;;;;8.50;8.20;;;13.90;99.90;;;;;;4892207;29;20558;-82
2023/10/04 04:09:23;;;;;;;9.27;8.87;;;14.00;99.90;;;;;;4887975;29;20490;-82
2023/10/04 04:11:52;;;;;;;9.40;8.93;;;13.90;99.90;;;;;;4886896;29;20471;-82
2023/10/04 04:14:20;;;;;;;9.10;8.70;;;13.90;99.90;;;;;;4886290;29;20555;-82
2023/10/04 04:16:51;;;;;;;9.40;8.90;;;14.00;99.90;;;;;;4888132;29;20610;-82
2023/10/04 04:19:23;;;;;;;9.33;9.00;;;13.90;99.90;;;;;;4893021;29;20467;-81
2023/10/04 04:21:52;;;;;;;8.60;8.30;;;13.80;99.90;;;;;;4890488;29;20527;-83
2023/10/04 04:24:23;;;;;;;9.07;8.77;;;13.80;1.00;;;;;;4889411;29;20548;-77
2023/10/04 04:26:58;;;;;;;8.90;8.50;;;13.80;1.00;;;;;;4890300;29;20483;-78
2023/10/04 04:29:27;;;;;;;8.37;8.13;;;13.80;1.00;;;;;;4893560;29;20569;-77
2023/10/04 04:31:56;;;;;;;10.07;9.47;;;13.70;1.00;;;;;;4893280;29;20481;-75
2023/10/04 04:34:25;;;;;;;9.30;8.73;;;13.70;1.00;;;;;;4887596;29;20467;-75
2023/10/04 04:36:55;;;;;;;8.77;8.37;;;13.60;1.00;;;;;;4894011;29;20489;-79
2023/10/04 04:39:28;;;;;;;9.40;9.00;;;13.50;1.00;;;;;;4895405;29;20471;-80
2023/10/04 04:41:59;;;;;;;9.37;8.87;;;13.60;1.00;;;;;;4894301;29;20541;-80
2023/10/04 04:44:39;;;;;;;9.20;8.80;;;13.70;1.00;;;;;;4908650;29;20997;-80
2023/10/04 04:47:10;;;;;;;9.10;8.70;;;13.70;99.90;;;;;;4892408;29;20479;-80
2023/10/04 04:49:38;;;;;;;9.37;9.07;;;13.70;99.90;;;;;;4891956;29;21020;-80
2023/10/04 04:52:09;;;;;;;9.70;9.30;;;13.70;1.00;;;;;;4894798;29;20546;-80
2023/10/04 04:54:37;;;;;;;8.90;8.60;;;13.70;1.00;;;;;;4895779;29;20463;-80
2023/10/04 04:57:07;;;;;;;9.33;9.03;;;13.80;1.00;;;;;;4895963;29;20569;-79
2023/10/04 04:59:36;;;;;;;8.80;8.50;;;13.80;99.90;;;;;;4886331;29;20550;-80
2023/10/04 05:02:05;;;;;;;9.90;9.40;;;13.80;99.90;;;;;;4889372;29;20481;-79
2023/10/04 05:04:34;;;;;;;9.90;9.40;;;13.70;99.90;;;;;;4890395;29;20474;-79
2023/10/04 05:07:06;;;;;;;9.30;9.00;;;13.70;1.00;;;;;;4893089;29;20486;-80
2023/10/04 05:09:41;;;;;;;9.30;9.00;;;13.70;99.90;;;;;;4893037;29;20555;-81
2023/10/04 05:12:11;;;;;;;8.73;8.37;;;13.70;99.90;;;;;;4893832;29;20489;-81
2023/10/04 05:14:40;;;;;;;8.60;8.40;;;13.70;99.90;;;;;;4896059;29;20474;-80
2023/10/04 05:17:08;;;;;;;10.87;10.43;;;13.70;99.90;;;;;;4895078;29;20512;-82
2023/10/04 05:19:36;;;;;;;9.80;9.30;;;13.60;99.90;;;;;;4893547;29;21048;-82
2023/10/04 05:22:05;;;;;;;10.13;9.63;;;13.60;1.00;;;;;;4892566;29;20583;-80
2023/10/04 05:24:33;;;;;;;9.47;9.10;;;13.60;1.00;;;;;;4894385;29;20481;-81
2023/10/04 05:27:02;;;;;;;10.80;10.17;;;13.70;1.00;;;;;;4898118;29;20586;-80
2023/10/04 05:29:32;;;;;;;9.10;8.80;;;13.60;99.90;;;;;;4890620;29;20465;-80
2023/10/04 05:32:01;;;;;;;10.27;9.77;;;13.60;99.90;;;;;;4889866;29;20501;-81
2023/10/04 05:34:29;;;;;;;9.03;8.70;;;13.60;99.90;;;;;;4892583;29;21205;-80
2023/10/04 05:36:57;;;;;;;9.40;9.00;;;13.50;99.90;;;;;;4892797;29;20486;-80
2023/10/04 05:39:25;;;;;;;9.63;9.17;;;13.50;99.90;;;;;;4883296;29;20451;-80
2023/10/04 05:41:54;;;;;;;9.90;9.53;;;13.50;99.90;;;;;;4902909;29;20516;-80
2023/10/04 05:44:23;;;;;;;9.30;8.87;;;13.50;99.90;;;;;;4890007;29;20474;-81
2023/10/04 05:46:52;;;;;;;10.67;9.97;;;13.50;99.90;;;;;;4887759;29;20463;-79
2023/10/04 05:49:20;;;;;;;9.20;8.90;;;13.50;99.90;;;;;;4892286;29;20470;-80
2023/10/04 05:51:49;;;;;;;9.80;9.13;;;13.60;99.90;;;;;;4891162;29;20471;-80
2023/10/04 05:54:17;;;;;;;9.10;8.80;;;13.60;1.00;;;;;;4891782;29;20455;-80
2023/10/04 05:56:46;;;;;;;8.80;8.60;;;13.60;1.00;;;;;;4887536;29;20559;-79
2023/10/04 05:59:14;;;;;;;9.23;8.93;;;13.60;99.90;;;;;;4892301;29;20474;-81
2023/10/04 06:01:42;;;;;;;9.50;9.10;;;13.60;1.00;;;;;;4890207;29;20997;-82
2023/10/04 06:04:11;;;;;;;10.30;9.80;;;13.60;1.00;;;;;;4887332;29;20455;-80
2023/10/04 06:06:45;;;;;;;9.90;9.20;;;13.60;99.90;;;;;;4890255;29;20475;-79
2023/10/04 06:09:26;;;;;;;9.80;9.33;;;13.60;99.90;;;;;;4892155;29;20530;-80
2023/10/04 06:11:54;;;;;;;9.50;9.07;;;13.60;99.90;;;;;;4889658;29;20455;-80
2023/10/04 06:14:25;;;;;;;10.53;9.97;;;13.60;99.90;;;;;;4889949;29;20843;-80
2023/10/04 06:16:53;;;;;;;9.70;9.20;;;13.60;99.90;;;;;;4891461;29;20471;-79
2023/10/04 06:19:25;;;;;;;10.20;9.73;;;13.50;99.90;;;;;;4892023;29;20463;-80
2023/10/04 06:21:58;;;;;;;10.53;10.13;;;13.60;99.90;;;;;;4890454;29;20540;-81
2023/10/04 06:24:27;;;;;;;10.40;9.83;;;13.60;1.00;;;;;;4889778;29;20467;-81
2023/10/04 06:26:55;;;;;;;10.83;10.23;;;13.70;1.00;;;;;;4889350;29;20502;-81
2023/10/04 06:29:24;;;;;;;10.50;10.00;;;13.80;1.00;;;;;;4890130;29;20472;-80
2023/10/04 06:31:52;;;;;;;10.57;9.97;;;13.40;1.00;;;;;;4890848;29;20219;-81
2023/10/04 06:34:20;;;;;;;10.23;9.73;;;13.70;1.00;;;;;;4889545;29;20463;-80
2023/10/04 06:36:50;;;;;;;9.37;9.07;;;13.70;1.00;;;;;;4903943;29;20547;-80
2023/10/04 06:39:18;;;;;;;10.47;9.80;;;13.90;1.00;;;;;;4891301;29;20451;-80
2023/10/04 06:41:46;;;;;;;10.17;9.70;;;14.00;1.00;;;;;;4890251;29;20488;-80
2023/10/04 06:44:14;;;;;;;10.20;9.80;;;13.90;1.00;;;;;;4890996;29;20843;-81
2023/10/04 06:46:42;;;;;;;9.93;9.53;;;14.00;1.00;;;;;;4885947;29;20487;-79
2023/10/04 06:49:10;;;;;;;11.40;10.50;;;14.00;1.00;;;;;;4889493;29;20471;-80
2023/10/04 06:51:38;;;;;;;10.60;10.10;;;14.10;1.00;;;;;;4889051;29;20451;-80
2023/10/04 06:54:09;;;;;;;10.93;10.50;;;14.00;1.00;;;;;;4888274;29;20447;-80
2023/10/04 06:56:37;;;;;;;10.93;10.40;;;14.10;1.00;;;;;;4891053;29;20491;-80
2023/10/04 06:59:05;;;;;;;10.13;9.73;;;14.20;1.00;;;;;;4891393;29;20479;-80
2023/10/04 07:01:33;;;;;;;11.10;10.60;;;14.10;99.90;;;;;;4892312;29;20464;-82
2023/10/04 07:04:02;;;;;;;10.97;10.37;;;14.00;1.00;;;;;;4877685;29;20214;-82
2023/10/04 07:06:32;;;;;;;10.93;10.30;;;14.20;1.00;;;;;;4893836;29;20483;-82
2023/10/04 07:09:01;;;;;;;11.10;10.50;;;14.30;1.00;;;;;;4896697;29;20535;-81
2023/10/04 07:11:30;;;;;;;11.20;10.73;;;14.50;1.00;;;;;;4898241;29;20471;-81
2023/10/04 07:13:58;;;;;;;10.43;9.73;;;14.60;99.90;;;;;;4897513;29;20926;-81
2023/10/04 07:16:26;;;;;;;10.47;10.03;;;14.70;99.90;;;;;;4896508;29;20489;-82
2023/10/04 07:18:55;;;;;;;10.43;10.03;;;14.70;99.90;;;;;;4894398;29;21084;-81
2023/10/04 07:21:23;;;;;;;10.60;10.10;;;14.90;99.90;;;;;;4893041;29;21285;-81
2023/10/04 07:23:51;;;;;;;11.40;10.33;;;14.90;99.90;;;;;;4895968;29;20474;-81
2023/10/04 07:26:19;;;;;;;11.03;10.63;;;15.00;99.90;;;;;;4896742;29;21020;-81
2023/10/04 07:28:48;;;;;;;10.40;10.00;;;15.10;99.90;;;;;;4896557;29;20534;-81
2023/10/04 07:31:18;;;;;;;10.77;10.20;;;15.20;99.90;;;;;;4893065;29;20535;-82
2023/10/04 07:33:47;;;;;;;10.70;10.27;;;15.30;99.90;;;;;;4890524;29;20486;-82
2023/10/04 07:36:15;;;;;;;10.40;9.90;;;15.60;99.90;;;;;;4892298;29;20491;-80
2023/10/04 07:38:44;;;;;;;10.70;10.20;;;15.90;99.90;;;;;;4890894;29;20853;-80
2023/10/04 07:41:14;;;;;;;10.93;10.53;;;16.10;99.90;;;;;;4892314;29;20447;-80
2023/10/04 07:43:42;;;;;;;10.27;9.73;;;16.50;99.90;;;;;;4889410;29;20466;-80
2023/10/04 07:46:12;;;;;;;11.03;10.63;;;16.80;99.90;;;;;;4887895;29;20482;-79
2023/10/04 07:48:42;;;;;;;10.27;9.80;;;17.30;99.90;;;;;;4886594;29;20463;-79
2023/10/04 07:51:10;;;;;;;10.60;10.20;;;17.70;99.90;;;;;;4885435;29;20466;-80
2023/10/04 07:53:38;;;;;;;10.40;9.90;;;18.20;99.90;;;;;;4891822;29;20888;-82
2023/10/04 07:56:11;;;;;;;10.57;9.90;;;18.30;99.90;;;;;;4886636;29;21009;-79
2023/10/04 07:58:39;;;;;;;10.20;9.90;;;18.70;99.90;;;;;;4889843;29;20487;-80
2023/10/04 08:01:07;;;;;;;10.40;10.00;;;19.00;99.90;;;;;;4894513;29;20463;-80
2023/10/04 08:03:37;;;;;;;9.90;9.60;;;19.50;99.90;;;;;;4890635;29;20463;-80
2023/10/04 08:06:10;;;;;;;10.23;9.80;;;19.80;99.90;;;;;;4902695;29;20488;-80
2023/10/04 08:08:41;;;;;;;10.90;10.40;;;20.00;99.90;;;;;;4889984;29;20463;-79
2023/10/04 08:11:10;;;;;;;10.13;9.73;;;20.40;99.90;;;;;;4886722;29;20491;-80
2023/10/04 08:13:39;;;;;;;10.70;10.20;;;20.90;99.90;;;;;;4892347;29;20472;-81
2023/10/04 08:16:08;;;;;;;10.97;10.47;;;21.20;99.90;;;;;;4893815;29;20487;-81
2023/10/04 08:18:37;;;;;;;10.17;9.77;;;21.20;99.90;;;;;;4891047;29;20494;-80
2023/10/04 08:21:06;;;;;;;9.97;9.47;;;21.60;99.90;;;;;;4893133;29;20452;-80
2023/10/04 08:23:35;;;;;;;10.00;9.40;;;22.00;99.90;;;;;;4893889;29;20461;-83
2023/10/04 08:26:12;;;;;;;10.17;9.37;;;22.30;99.90;;;;;;4892248;29;20487;-82
2023/10/04 08:28:41;;;;;;;9.70;9.13;;;22.60;99.90;;;;;;4894718;29;20540;-80
2023/10/04 08:31:11;;;;;;;9.30;8.90;;;22.80;99.90;;;;;;4895752;29;20459;-80
2023/10/04 08:33:43;;;;;;;8.73;8.43;;;22.80;99.90;;;;;;4893454;29;20740;-81
2023/10/04 08:36:15;;;;;;;9.00;8.60;;;23.00;99.90;;;;;;4890802;29;20572;-83
2023/10/04 08:38:45;;;;;;;9.43;8.93;;;23.40;99.90;;;;;;4891805;29;20491;-81
2023/10/04 08:41:16;;;;;;;8.70;8.33;;;23.80;99.90;;;;;;4893387;29;20475;-83
2023/10/04 08:43:44;;;;;;;8.67;8.00;;;24.10;99.90;;;;;;4889696;29;20458;-81
2023/10/04 08:46:15;;;;;;;8.13;7.80;;;24.40;99.90;;;;;;4890746;29;20823;-81
2023/10/04 08:48:53;;;;;;;8.67;8.37;;;24.80;99.90;;;;;;4888675;29;20516;-83
2023/10/04 08:51:41;;;;;;;8.40;7.90;;;25.00;99.90;;;;;;4890341;29;20467;-81
2023/10/04 08:54:16;;;;;;;8.23;7.60;;;25.10;99.90;;;;;;4889341;29;20813;-81
2023/10/04 08:56:55;;;;;;;7.93;7.60;;;25.20;99.90;;;;;;4890147;29;20578;-82
2023/10/04 08:59:25;;;;;;;8.17;7.67;;;25.40;99.90;;;;;;4886626;29;21092;-82
2023/10/04 09:01:54;;;;;;;8.50;8.30;;;25.90;99.90;;;;;;4888183;29;20490;-83
2023/10/04 09:04:24;;;;;;;8.03;7.70;;;26.40;99.90;;;;;;4886909;29;20461;-84
2023/10/04 09:06:53;;;;;;;8.73;8.43;;;26.50;99.90;;;;;;4885019;29;20554;-83
2023/10/04 09:09:22;;;;;;;8.40;8.10;;;26.60;99.90;;;;;;4887375;29;20528;-83
2023/10/04 09:11:51;;;;;;;8.27;7.57;;;27.00;99.90;;;;;;4888609;29;20472;-83
2023/10/04 09:14:20;;;;;;;8.80;8.37;;;27.10;99.90;;;;;;4883736;29;20573;-83
2023/10/04 09:17:05;;;;;;;7.80;7.50;;;27.50;99.90;;;;;;4889065;29;21367;-83
2023/10/04 09:19:35;;;;;;;8.33;7.93;;;28.10;99.90;;;;;;4890067;29;20555;-84
2023/10/04 09:22:08;;;;;;;7.23;6.93;;;28.20;99.90;;;;;;4888392;29;20541;-83
2023/10/04 09:24:52;;;;;;;7.53;7.00;;;28.70;99.90;;;;;;4889444;29;20462;-83
2023/10/04 09:27:21;;;;;;;6.97;6.67;;;29.10;99.90;;;;;;4890161;29;20493;-83
2023/10/04 09:29:50;;;;;;;6.33;6.00;;;29.10;99.90;;;;;;4886242;29;20719;-83
2023/10/04 09:32:33;;;;;;;6.93;6.30;;;29.40;99.90;;;;;;4887908;29;20546;-83
2023/10/04 09:35:03;;;;;;;6.00;5.80;;;29.40;99.90;;;;;;4885808;29;20565;-83
2023/10/04 09:37:31;;;;;;;6.60;6.40;;;29.70;99.90;;;;;;4889018;29;20479;-84
2023/10/04 09:40:11;;;;;;;6.50;6.00;;;29.80;99.90;;;;;;4889428;29;20490;-83
2023/10/04 09:42:51;;;;;;;5.83;5.53;;;29.50;99.90;;;;;;4890371;29;21272;-83
2023/10/04 09:45:24;;;;;;;6.27;5.87;;;29.20;99.90;;;;;;4884156;29;20470;-83
2023/10/04 09:47:54;;;;;;;6.77;6.33;;;28.70;99.90;;;;;;4902910;29;20549;-83
2023/10/04 09:50:25;;;;;;;7.13;6.80;;;28.10;99.90;;;;;;4889216;29;20587;-83
2023/10/04 09:52:54;;;;;;;6.93;6.73;;;27.40;99.90;;;;;;4888548;29;20503;-83
2023/10/04 09:55:23;;;;;;;6.97;6.70;;;26.70;99.90;;;;;;4889391;29;20463;-83
2023/10/04 09:57:53;;;;;;;7.50;7.30;;;26.00;99.90;;;;;;4891478;29;20536;-83
2023/10/04 10:00:22;;;;;;;7.50;7.10;;;25.60;99.90;;;;;;4902373;29;20571;-84
2023/10/04 10:02:53;;;;;;;7.10;6.80;;;25.40;99.90;;;;;;4890630;29;20460;-83
2023/10/04 10:05:27;;;;;;;6.47;6.17;;;25.40;99.90;;;;;;4889298;29;20464;-83
2023/10/04 10:08:04;;;;;;;6.83;6.53;;;25.60;99.90;;;;;;4890260;29;20479;-84
2023/10/04 10:10:35;;;;;;;7.00;6.70;;;25.50;99.90;;;;;;4890221;29;20559;-83
2023/10/04 10:13:05;;;;;;;6.10;5.70;;;25.00;99.90;;;;;;4889892;29;21033;-82
2023/10/04 10:15:34;;;;;;;5.63;5.40;;;24.50;99.90;;;;;;4886496;29;20456;-82
2023/10/04 10:18:03;;;;;;;6.93;6.63;;;23.80;98.40;;;;;;4888644;29;20464;-82
2023/10/04 10:20:33;;;;;;;7.53;7.10;;;23.50;97.00;;;;;;4888977;29;20853;-83
2023/10/04 10:23:15;;;;;;;6.50;6.20;;;23.20;96.60;;;;;;4889536;29;20475;-81
2023/10/04 10:26:13;;;;;;;7.53;6.63;;;23.00;95.20;;;;;;4888324;29;20470;-83
2023/10/04 10:28:41;;;;;;;6.87;6.47;;;23.40;99.50;;;;;;4903179;29;20460;-83
2023/10/04 10:31:19;;;;;;;6.33;6.13;;;23.90;99.90;;;;;;4886733;29;21084;-83
2023/10/04 10:33:49;;;;;;;6.70;6.30;;;24.70;99.90;;;;;;4889115;29;20455;-83
2023/10/04 10:36:23;;;;;;;5.53;5.33;;;25.20;99.90;;;;;;4883613;29;20479;-83
2023/10/04 10:38:52;;;;;;;5.83;5.63;;;25.40;99.90;;;;;;4887506;29;20483;-83
2023/10/04 10:41:55;;;;;;;5.93;5.63;;;25.40;99.90;;;;;;4890784;29;20479;-83
2023/10/04 10:44:30;;;;;;;6.27;6.07;;;25.40;99.90;;;;;;4890903;29;20941;-83
2023/10/04 10:47:04;;;;;;;5.63;5.50;;;25.80;99.90;;;;;;4880840;29;20487;-83
2023/10/04 10:49:40;;;;;;;6.57;6.07;;;25.60;99.90;;;;;;4884312;29;20451;-84
2023/10/04 10:52:20;;;;;;;6.30;5.90;;;25.50;99.90;;;;;;4890469;29;20962;-85
2023/10/04 10:54:49;;;;;;;6.40;6.10;;;25.10;99.90;;;;;;4888153;29;20461;-83
2023/10/04 10:57:19;;;;;;;5.93;5.73;;;24.80;99.90;;;;;;4890517;29;20490;-83
2023/10/04 10:59:50;;;;;;;6.73;6.23;;;24.70;99.90;;;;;;4889556;29;20481;-83
2023/10/04 11:02:18;;;;;;;5.97;5.73;;;24.40;99.90;;;;;;4882641;29;20467;-82
2023/10/04 11:04:46;;;;;;;6.30;5.70;;;24.40;99.90;;;;;;4883915;29;20467;-83
2023/10/04 11:07:17;;;;;;;5.73;5.37;;;24.70;99.90;;;;;;4890008;29;20487;-83
2023/10/04 11:09:51;;;;;;;5.90;5.60;;;24.60;99.90;;;;;;4888131;29;20911;-82
2023/10/04 11:12:38;;;;;;;5.60;5.30;;;24.70;99.90;;;;;;4887680;29;20943;-83
2023/10/04 11:15:08;;;;;;;5.87;5.47;;;24.70;99.90;;;;;;4886244;29;20463;-83
2023/10/04 11:17:36;;;;;;;6.60;6.30;;;24.20;99.90;;;;;;4883598;29;20479;-82
2023/10/04 11:20:11;;;;;;;5.60;5.30;;;24.00;99.90;;;;;;4884794;29;20604;-83
2023/10/04 11:22:44;;;;;;;5.77;5.47;;;24.00;99.90;;;;;;4888831;29;20466;-83
2023/10/04 11:25:13;;;;;;;5.70;5.40;;;23.80;99.60;;;;;;4889745;29;20478;-84
2023/10/04 11:27:43;;;;;;;5.33;5.03;;;23.70;98.80;;;;;;4888890;29;20559;-82
2023/10/04 11:30:14;;;;;;;5.90;5.40;;;23.50;97.30;;;;;;4886102;29;20459;-82
2023/10/04 11:32:44;;;;;;;5.20;5.00;;;23.30;95.80;;;;;;4887456;29;20468;-82
2023/10/04 11:35:13;;;;;;;5.47;5.27;;;23.40;96.20;;;;;;4884258;29;20967;-83
2023/10/04 11:37:43;;;;;;;5.10;4.87;;;23.30;95.20;;;;;;4886455;29;21088;-84
2023/10/04 11:40:23;;;;;;;4.93;4.67;;;23.40;95.90;;;;;;4890091;29;20479;-83
2023/10/04 11:43:00;;;;;;;4.83;4.63;;;23.50;96.10;;;;;;4887306;29;20481;-83
2023/10/04 11:45:29;;;;;;;5.43;5.13;;;23.50;94.90;;;;;;4884332;29;20513;-82
2023/10/04 11:47:59;;;;;;;5.20;4.90;;;23.60;96.70;;;;;;4883732;29;20535;-82
2023/10/04 11:50:48;;;;;;;6.10;5.60;;;23.60;97.30;;;;;;4884828;29;20529;-83
2023/10/04 11:53:31;;;;;;;5.57;5.20;;;23.50;95.60;;;;;;4885795;29;20455;-83
2023/10/04 11:56:10;;;;;;;4.97;4.77;;;23.50;95.20;;;;;;4888566;29;20984;-83
2023/10/04 11:58:48;;;;;;;4.67;4.40;;;23.20;92.40;;;;;;4888880;29;20463;-83
2023/10/04 12:01:17;;;;;;;4.67;4.57;;;23.30;93.50;;;;;;4886589;29;20487;-84
2023/10/04 12:03:46;;;;;;;5.00;4.80;;;23.40;94.80;;;;;;4904324;29;20467;-85
2023/10/04 12:06:15;;;;;;;5.20;5.00;;;23.50;96.60;;;;;;4884227;29;20489;-85
2023/10/04 12:08:45;;;;;;;5.03;4.83;;;23.60;98.00;;;;;;4889703;29;20466;-83
2023/10/04 12:11:17;;;;;;;5.00;4.60;;;23.60;97.20;;;;;;4894319;29;20531;-83
2023/10/04 12:13:45;;;;;;;4.90;4.60;;;23.60;97.60;;;;;;4896794;29;20538;-81
2023/10/04 12:16:14;;;;;;;5.87;5.37;;;23.60;97.70;;;;;;4893041;29;20503;-82
2023/10/04 12:18:43;;;;;;;4.53;4.30;;;23.50;96.50;;;;;;4893600;29;20701;-83
2023/10/04 12:21:12;;;;;;;4.93;4.60;;;23.40;95.50;;;;;;4891525;29;20487;-82
2023/10/04 12:23:44;;;;;;;4.67;4.57;;;23.30;94.00;;;;;;4890355;29;20530;-80
2023/10/04 12:26:15;;;;;;;4.53;4.23;;;23.30;95.20;;;;;;4890047;29;20601;-80
2023/10/04 12:28:43;;;;;;;4.43;4.33;;;23.30;94.50;;;;;;4889407;29;21130;-82
2023/10/04 12:31:12;;;;;;;4.37;4.17;;;23.40;94.70;;;;;;4892251;29;20447;-82
2023/10/04 12:33:41;;;;;;;5.00;4.67;;;23.40;94.50;;;;;;4891438;29;21178;-80
2023/10/04 12:36:10;;;;;;;5.37;5.07;;;23.40;94.80;;;;;;4903344;29;20482;-80
2023/10/04 12:38:38;;;;;;;5.20;5.00;;;23.50;95.50;;;;;;4887072;29;20558;-80
2023/10/04 12:41:08;;;;;;;4.90;4.70;;;23.50;94.70;;;;;;4891207;29;20494;-81
2023/10/04 12:43:37;;;;;;;5.27;4.97;;;23.20;93.80;;;;;;4891359;29;20534;-83
2023/10/04 12:46:06;;;;;;;5.20;5.10;;;23.20;99.90;;;;;;4892117;29;20545;-81
2023/10/04 12:48:35;;;;;;;5.60;5.40;;;23.50;95.80;;;;;;4894718;29;20467;-80
2023/10/04 12:51:04;;;;;;;5.10;4.80;;;23.60;96.40;;;;;;4898437;29;20447;-83
2023/10/04 12:53:32;;;;;;;5.73;5.43;;;23.50;95.10;;;;;;4893178;29;20468;-80
2023/10/04 12:56:21;;;;;;;5.10;4.90;;;23.60;95.60;;;;;;4898524;29;20467;-83
2023/10/04 12:59:04;;;;;;;5.30;5.10;;;23.70;96.80;;;;;;4899920;29;20535;-81
2023/10/04 13:01:34;;;;;;;5.20;5.10;;;23.70;99.90;;;;;;4898115;29;20506;-82
2023/10/04 13:04:07;;;;;;;6.00;5.70;;;23.60;95.20;;;;;;4881070;29;20455;-82